Search for airport 
image banner adimage banner adimage banner ad
image banner ad

O79 - Sierraville Dearwater

Located in Sierraville, United States

ICAO - O79, IATA -

Data provided by Airmate  

General information

Coordinates: N39°34'54" W120°21'15"
Elevation is 4984 feet MSL.
Magnetic variation is 16° East
View others Airports in California

Operational data

Special qualification required
Current time UTC:
Current local time:
Weather at : KTRK - Truckee-Tahoe ( 34 km )
METAR: KTRK 240815Z AUTO 00000KT 10SM CLR 08/05 A3022 RMK AO2
TAF: KTRK 240520Z 2406/2506 VRB03KT P6SM BKN110 FM241900 29007KT P6SM VCTS SCT060CB BKN090 FM250300 VRB04KT P6SM FEW080 SCT250
View NOTAMs / SUP AIP / TFR affecting this airport [VIEW]
Communications frequencies: [VIEW]

Runways:

RWY identifierQFULength (ft)Width (ft)SurfaceLDA (ft)
03326050ASPH
21326050ASPH

Airport contact information

Address: Sierraville United States

Satellite view of O79